sensor_id;sensor_type;location;lat;lon;timestamp;pressure;altitude;pressure_sealevel;temperature;humidity
69316;BME280;56445;43.552;5.034;2023-04-09T06:03:23;101795.19;;;27.04;15.83
69316;BME280;56445;43.552;5.034;2023-04-09T06:05:50;101812.44;;;27.20;15.69
69316;BME280;56445;43.552;5.034;2023-04-09T06:08:18;101794.53;;;27.13;15.67
69316;BME280;56445;43.552;5.034;2023-04-09T06:10:47;101795.81;;;27.20;15.83
69316;BME280;56445;43.552;5.034;2023-04-09T06:13:14;101796.41;;;27.17;16.17
69316;BME280;56445;43.552;5.034;2023-04-09T06:15:41;101793.94;;;27.16;16.03
69316;BME280;56445;43.552;5.034;2023-04-09T06:18:08;101799.72;;;27.19;16.07
69316;BME280;56445;43.552;5.034;2023-04-09T06:20:35;101819.59;;;27.26;15.72
69316;BME280;56445;43.552;5.034;2023-04-09T06:23:03;101805.47;;;27.23;15.89
69316;BME280;56445;43.552;5.034;2023-04-09T06:25:31;101811.53;;;27.30;16.03
69316;BME280;56445;43.552;5.034;2023-04-09T06:27:58;101824.13;;;27.41;15.96
69316;BME280;56445;43.552;5.034;2023-04-09T06:30:26;101830.09;;;27.48;15.79
69316;BME280;56445;43.552;5.034;2023-04-09T06:32:55;101834.25;;;27.51;16.01
69316;BME280;56445;43.552;5.034;2023-04-09T06:35:25;101807.78;;;27.40;16.31
69316;BME280;56445;43.552;5.034;2023-04-09T06:37:52;101826.22;;;27.49;15.99
69316;BME280;56445;43.552;5.034;2023-04-09T06:40:25;101833.56;;;27.59;15.89
69316;BME280;56445;43.552;5.034;2023-04-09T06:42:54;101830.03;;;27.54;16.40
69316;BME280;56445;43.552;5.034;2023-04-09T06:45:25;101820.31;;;27.56;16.24
69316;BME280;56445;43.552;5.034;2023-04-09T06:48:04;101834.75;;;27.72;16.14
69316;BME280;56445;43.552;5.034;2023-04-09T06:50:33;101825.41;;;27.68;16.11
69316;BME280;56445;43.552;5.034;2023-04-09T06:53:02;101822.47;;;27.78;16.10
69316;BME280;56445;43.552;5.034;2023-04-09T06:55:36;101827.06;;;27.88;16.13
69316;BME280;56445;43.552;5.034;2023-04-09T06:58:20;101833.59;;;27.97;16.28
69316;BME280;56445;43.552;5.034;2023-04-09T07:00:47;101833.19;;;28.04;16.15
69316;BME280;56445;43.552;5.034;2023-04-09T07:03:14;101849.59;;;28.19;16.39
69316;BME280;56445;43.552;5.034;2023-04-09T07:05:42;101842.19;;;28.15;16.30
69316;BME280;56445;43.552;5.034;2023-04-09T07:08:09;101839.19;;;28.11;15.98
69316;BME280;56445;43.552;5.034;2023-04-09T07:10:37;101844.56;;;28.21;16.26
69316;BME280;56445;43.552;5.034;2023-04-09T07:13:04;101857.59;;;28.40;16.39
69316;BME280;56445;43.552;5.034;2023-04-09T07:15:31;101838.75;;;28.37;16.12
69316;BME280;56445;43.552;5.034;2023-04-09T07:17:58;101857.97;;;28.52;16.21
69316;BME280;56445;43.552;5.034;2023-04-09T07:20:26;101866.41;;;28.61;16.16
69316;BME280;56445;43.552;5.034;2023-04-09T07:22:53;101856.72;;;28.58;16.18
69316;BME280;56445;43.552;5.034;2023-04-09T07:25:20;101874.00;;;28.69;16.44
69316;BME280;56445;43.552;5.034;2023-04-09T07:27:47;101863.94;;;28.73;16.32
69316;BME280;56445;43.552;5.034;2023-04-09T07:30:15;101866.03;;;28.81;16.39
69316;BME280;56445;43.552;5.034;2023-04-09T07:32:42;101862.84;;;28.88;16.21
69316;BME280;56445;43.552;5.034;2023-04-09T07:35:10;101875.28;;;29.04;16.41
69316;BME280;56445;43.552;5.034;2023-04-09T07:37:38;101857.50;;;29.05;16.09
69316;BME280;56445;43.552;5.034;2023-04-09T07:40:06;101865.44;;;29.26;16.33
69316;BME280;56445;43.552;5.034;2023-04-09T07:42:52;101860.50;;;29.37;16.24
69316;BME280;56445;43.552;5.034;2023-04-09T07:45:20;101851.81;;;29.38;16.31
69316;BME280;56445;43.552;5.034;2023-04-09T07:47:49;101847.31;;;29.42;16.15
